createdAt,value
2023-05-15T00:01:00.199Z,100226.32
2023-05-15T00:03:35.006Z,100222.04
2023-05-15T00:06:07.978Z,100216.81
2023-05-15T00:08:40.958Z,100216.95
2023-05-15T00:11:15.802Z,100218.77
2023-05-15T00:13:48.751Z,100210.08
2023-05-15T00:16:21.108Z,100204.88
2023-05-15T00:18:53.438Z,100203.20
2023-05-15T00:21:25.966Z,100201.55
2023-05-15T00:23:58.915Z,100202.52
2023-05-15T00:26:31.728Z,100199.92
2023-05-15T00:29:04.312Z,100202.63
2023-05-15T00:31:36.611Z,100195.71
2023-05-15T00:34:09.138Z,100187.86
2023-05-15T00:36:42.880Z,100188.84
2023-05-15T00:39:17.400Z,100186.37
2023-05-15T00:41:51.354Z,100186.37
2023-05-15T00:44:22.840Z,100187.28
2023-05-15T00:46:57.809Z,100179.47
2023-05-15T00:49:31.273Z,100181.22
2023-05-15T00:52:06.062Z,100183.91
2023-05-15T00:54:40.175Z,100193.58
2023-05-15T00:57:11.626Z,100195.39
2023-05-15T00:59:44.955Z,100203.30
2023-05-15T01:02:19.631Z,100195.48
2023-05-15T01:04:54.854Z,100186.86
2023-05-15T01:07:27.742Z,100180.80
2023-05-15T01:10:03.674Z,100173.92
2023-05-15T01:12:39.855Z,100177.52
2023-05-15T01:15:14.692Z,100174.92
2023-05-15T01:17:47.657Z,100174.21
2023-05-15T01:20:22.077Z,100164.83
2023-05-15T01:23:24.091Z,100151.95
2023-05-15T01:26:36.381Z,100153.02
2023-05-15T01:29:21.744Z,100143.42
2023-05-15T01:32:00.275Z,100146.95
2023-05-15T01:34:40.912Z,100146.11
2023-05-15T01:37:16.293Z,100158.37
2023-05-15T01:39:55.427Z,100146.20
2023-05-15T01:42:34.672Z,100139.24
2023-05-15T01:45:17.148Z,100140.20
2023-05-15T01:47:51.180Z,100130.68
2023-05-15T01:50:22.624Z,100128.98
2023-05-15T01:53:00.223Z,100121.17
2023-05-15T01:55:33.807Z,100117.64
2023-05-15T01:58:08.565Z,100114.12
2023-05-15T02:00:39.920Z,100119.39
2023-05-15T02:03:12.816Z,100120.33
2023-05-15T02:05:48.525Z,100126.36
2023-05-15T02:08:25.896Z,100133.30
2023-05-15T02:11:01.158Z,100125.30
2023-05-15T02:13:36.735Z,100118.23
2023-05-15T02:16:11.185Z,100112.98
2023-05-15T02:18:46.779Z,100107.73
2023-05-15T02:21:19.495Z,100105.98
2023-05-15T02:23:51.747Z,100105.11
2023-05-15T02:26:32.989Z,100099.83
2023-05-15T02:29:18.181Z,100093.70
2023-05-15T02:32:12.380Z,100090.27
2023-05-15T02:34:52.190Z,100085.92
2023-05-15T02:37:32.884Z,100065.83
2023-05-15T02:40:08.244Z,100063.27
2023-05-15T02:42:45.251Z,100063.34
2023-05-15T02:45:18.514Z,100052.02
2023-05-15T02:47:52.051Z,100047.68
2023-05-15T02:50:25.479Z,100045.13
2023-05-15T02:53:08.023Z,100039.00
2023-05-15T02:55:41.793Z,100036.44
2023-05-15T02:58:15.037Z,100035.56
2023-05-15T03:00:47.408Z,100040.87
2023-05-15T03:03:22.435Z,100038.19
2023-05-15T03:05:56.703Z,100037.28
2023-05-15T03:08:29.584Z,100038.16
2023-05-15T03:11:01.856Z,100019.78
2023-05-15T03:13:34.189Z,100025.88
2023-05-15T03:16:06.884Z,100016.25
2023-05-15T03:18:42.462Z,100010.94
2023-05-15T03:21:16.242Z,100008.31
2023-05-15T03:23:48.683Z,100002.16
2023-05-15T03:26:21.999Z,99990.78
2023-05-15T03:28:54.312Z,99991.66
2023-05-15T03:31:29.620Z,99987.31
2023-05-15T03:34:01.964Z,99974.19
2023-05-15T03:36:34.705Z,99968.03
2023-05-15T03:39:07.007Z,99971.50
2023-05-15T03:41:51.712Z,99968.03
2023-05-15T03:44:24.228Z,99960.16
2023-05-15T03:46:59.236Z,99975.80
2023-05-15T03:49:31.760Z,99970.48
2023-05-15T03:52:04.555Z,99980.92
2023-05-15T03:54:36.818Z,99974.76
2023-05-15T03:57:09.432Z,99973.01
2023-05-15T03:59:43.927Z,99959.02
2023-05-15T04:02:18.244Z,99964.33
2023-05-15T04:04:52.286Z,99956.52
2023-05-15T04:07:25.303Z,99941.68
2023-05-15T04:09:58.027Z,99931.17
2023-05-15T04:12:31.063Z,99929.50
2023-05-15T04:15:17.058Z,99926.13
2023-05-15T04:17:51.106Z,99918.36
2023-05-15T04:20:25.044Z,99918.50
2023-05-15T04:22:55.788Z,99915.97
2023-05-15T04:25:28.945Z,99924.76
2023-05-15T04:28:01.488Z,99926.47
2023-05-15T04:30:34.314Z,99931.72
2023-05-15T04:33:07.342Z,99933.37
2023-05-15T04:35:40.650Z,99926.38
2023-05-15T04:38:13.127Z,99923.61
2023-05-15T04:40:46.833Z,99927.11
2023-05-15T04:43:19.222Z,99914.83
2023-05-15T04:45:51.651Z,99925.23
2023-05-15T04:48:23.930Z,99913.02
2023-05-15T04:50:56.246Z,99917.35
2023-05-15T04:53:31.235Z,99909.48
2023-05-15T04:56:07.007Z,99906.02
2023-05-15T04:58:39.740Z,99906.05
2023-05-15T05:01:16.263Z,99903.48
2023-05-15T05:03:49.119Z,99896.59
2023-05-15T05:06:21.683Z,99899.22
2023-05-15T05:08:54.111Z,99891.38
2023-05-15T05:11:26.438Z,99887.91
2023-05-15T05:13:58.774Z,99879.23
2023-05-15T05:16:31.560Z,99872.34
2023-05-15T05:19:06.418Z,99878.50
2023-05-15T05:21:40.031Z,99876.78
2023-05-15T05:24:12.944Z,99876.78
2023-05-15T05:26:46.422Z,99877.63
2023-05-15T05:29:18.671Z,99874.09
2023-05-15T05:31:51.592Z,99877.45
2023-05-15T05:34:24.826Z,99865.20
2023-05-15T05:36:58.975Z,99868.56
2023-05-15T05:39:30.005Z,99872.91
2023-05-15T05:42:02.622Z,99870.21
2023-05-15T05:44:35.407Z,99882.32
2023-05-15T05:47:08.065Z,99882.22
2023-05-15T05:49:43.808Z,99879.41
2023-05-15T05:52:17.048Z,99872.27
2023-05-15T05:54:49.339Z,99881.76
2023-05-15T05:57:21.577Z,99885.12
2023-05-15T05:59:54.251Z,99885.85
2023-05-15T06:02:26.713Z,99884.06
2023-05-15T06:04:59.838Z,99879.69
2023-05-15T06:07:32.259Z,99887.67
2023-05-15T06:10:04.804Z,99885.16
2023-05-15T06:12:39.769Z,99885.33
2023-05-15T06:15:13.708Z,99895.17
2023-05-15T06:17:46.189Z,99896.18
2023-05-15T06:20:20.173Z,99900.77
2023-05-15T06:22:55.290Z,99899.15
2023-05-15T06:25:30.786Z,99896.87
2023-05-15T06:28:05.992Z,99899.05
2023-05-15T06:30:42.051Z,99896.59
2023-05-15T06:33:22.405Z,99903.79
2023-05-15T06:35:55.251Z,99906.67
2023-05-15T06:38:32.160Z,99902.66
2023-05-15T06:41:05.000Z,99906.45
2023-05-15T06:43:42.661Z,99906.83
2023-05-15T06:46:19.312Z,99903.61
2023-05-15T06:48:52.638Z,99902.11
2023-05-15T06:51:28.668Z,99897.94
2023-05-15T06:54:07.232Z,99892.03
2023-05-15T06:56:42.024Z,99892.27
2023-05-15T06:59:14.434Z,99888.09
2023-05-15T07:01:46.746Z,99888.23
2023-05-15T07:04:19.743Z,99890.19
2023-05-15T07:06:52.324Z,99896.42
2023-05-15T07:09:24.618Z,99890.48
2023-05-15T07:11:58.009Z,99893.13
2023-05-15T07:14:30.417Z,99890.57
2023-05-15T07:17:02.913Z,99884.44
2023-05-15T07:19:35.970Z,99884.44
2023-05-15T07:22:08.555Z,99895.66
2023-05-15T07:24:41.311Z,99889.38
2023-05-15T07:27:13.654Z,99893.63
2023-05-15T07:29:46.422Z,99883.00
2023-05-15T07:32:18.908Z,99887.27
2023-05-15T07:34:51.264Z,99877.67
2023-05-15T07:37:25.053Z,99873.33
2023-05-15T07:39:57.618Z,99865.47
2023-05-15T07:42:29.847Z,99874.98
2023-05-15T07:45:02.189Z,99865.27
2023-05-15T07:47:35.824Z,99857.22
2023-05-15T07:50:10.978Z,99870.16
2023-05-15T07:52:43.318Z,99859.55
2023-05-15T07:55:15.650Z,99858.55
2023-05-15T07:57:53.549Z,99854.72
2023-05-15T08:00:26.549Z,99846.53
2023-05-15T08:02:58.919Z,99850.73
2023-05-15T08:05:31.338Z,99846.41
2023-05-15T08:08:04.739Z,99848.12
2023-05-15T08:10:37.038Z,99848.12
2023-05-15T08:13:09.642Z,99848.12
2023-05-15T08:15:42.632Z,99837.70
2023-05-15T08:18:15.083Z,99836.86
2023-05-15T08:20:48.353Z,99832.28
2023-05-15T08:23:20.568Z,99835.72
2023-05-15T08:25:53.470Z,99837.33
2023-05-15T08:28:25.768Z,99838.92
2023-05-15T08:31:00.493Z,99832.02
2023-05-15T08:33:33.133Z,99826.84
2023-05-15T08:36:08.977Z,99818.91
2023-05-15T08:38:41.584Z,99817.13
2023-05-15T08:41:38.875Z,99819.82
2023-05-15T08:44:14.115Z,99819.18
2023-05-15T08:46:48.946Z,99801.83
2023-05-15T08:49:32.004Z,99790.61
2023-05-15T08:52:04.898Z,99794.30
2023-05-15T08:54:37.950Z,99797.21
2023-05-15T08:57:12.016Z,99794.05
2023-05-15T08:59:44.780Z,99798.60
2023-05-15T09:02:18.534Z,99801.22
2023-05-15T09:04:51.074Z,99809.02
2023-05-15T09:07:23.772Z,99807.95
2023-05-15T09:09:57.886Z,99819.09
2023-05-15T09:12:32.431Z,99819.90
2023-05-15T09:15:17.963Z,99807.60
2023-05-15T09:17:51.623Z,99802.23
2023-05-15T09:20:32.934Z,99802.87
2023-05-15T09:23:07.784Z,99788.73
2023-05-15T09:25:42.819Z,99786.00
2023-05-15T09:28:31.262Z,99788.36
2023-05-15T09:31:05.971Z,99801.23
2023-05-15T09:33:44.346Z,99781.06
2023-05-15T09:36:24.774Z,99783.91
2023-05-15T09:39:02.142Z,99773.63
2023-05-15T09:41:34.612Z,99776.42
2023-05-15T09:44:21.428Z,99772.25
2023-05-15T09:46:57.436Z,99779.37
2023-05-15T09:49:33.256Z,99782.91
2023-05-15T09:52:09.329Z,99775.84
2023-05-15T09:54:41.808Z,99766.06
2023-05-15T09:57:15.598Z,99763.95
2023-05-15T09:59:49.627Z,99762.70
2023-05-15T10:02:32.759Z,99760.81
2023-05-15T10:05:05.920Z,99760.88
2023-05-15T10:07:46.090Z,99753.89
2023-05-15T10:10:18.456Z,99756.78
2023-05-15T10:12:54.259Z,99760.52
2023-05-15T10:15:26.800Z,99763.45
2023-05-15T10:18:00.289Z,99764.36
2023-05-15T10:20:35.688Z,99762.74
2023-05-15T10:23:11.802Z,99762.84
2023-05-15T10:25:51.891Z,99765.43
2023-05-15T10:28:25.855Z,99767.17
2023-05-15T10:31:01.471Z,99768.08
2023-05-15T10:33:36.974Z,99766.56
2023-05-15T10:36:12.959Z,99778.06
2023-05-15T10:38:49.925Z,99778.19
2023-05-15T10:41:26.296Z,99768.61
2023-05-15T10:44:01.746Z,99767.80
2023-05-15T10:46:37.303Z,99763.66
2023-05-15T10:49:31.093Z,99762.17
2023-05-15T10:52:24.793Z,99760.36
2023-05-15T10:59:07.207Z,99759.46
2023-05-15T11:01:55.151Z,99753.34
2023-05-15T11:04:36.067Z,99758.75
2023-05-15T11:07:19.680Z,99759.72
2023-05-15T11:10:40.305Z,99756.29
2023-05-15T11:13:12.996Z,99759.06
2023-05-15T11:16:01.158Z,99753.92
2023-05-15T11:18:39.471Z,99760.94
2023-05-15T11:21:18.808Z,99759.16
2023-05-15T11:24:05.307Z,99751.30
2023-05-15T11:26:43.313Z,99748.84
2023-05-15T11:29:22.140Z,99747.13
2023-05-15T11:31:54.576Z,99745.38
2023-05-15T11:34:36.865Z,99733.25
2023-05-15T11:37:22.260Z,99734.19
2023-05-15T11:39:56.706Z,99742.05
2023-05-15T11:42:30.695Z,99736.88
2023-05-15T11:45:04.183Z,99735.09
2023-05-15T11:47:37.141Z,99736.94
2023-05-15T11:50:14.862Z,99735.25
2023-05-15T11:52:47.508Z,99730.02
2023-05-15T11:55:22.650Z,99723.03
2023-05-15T11:57:57.831Z,99726.40
2023-05-15T12:00:30.219Z,99727.20
2023-05-15T12:03:03.922Z,99721.16
2023-05-15T12:05:36.972Z,99724.62
2023-05-15T12:08:13.593Z,99727.30
2023-05-15T12:10:46.887Z,99725.52
2023-05-15T12:13:21.888Z,99719.37
2023-05-15T12:15:55.249Z,99724.62
2023-05-15T12:18:28.320Z,99712.56
2023-05-15T12:21:01.530Z,99716.08
2023-05-15T12:23:39.600Z,99716.98
2023-05-15T12:26:17.725Z,99723.06
2023-05-15T12:28:56.310Z,99713.46
2023-05-15T12:31:29.225Z,99710.87
2023-05-15T12:34:03.766Z,99698.72
2023-05-15T12:36:36.203Z,99704.70
2023-05-15T12:39:11.898Z,99699.50
2023-05-15T12:41:49.100Z,99695.97
2023-05-15T12:44:22.324Z,99687.95
2023-05-15T12:46:59.976Z,99681.78
2023-05-15T12:49:32.670Z,99680.71
2023-05-15T12:52:13.823Z,99685.82
2023-05-15T12:54:47.387Z,99670.81
2023-05-15T12:57:21.658Z,99676.72
2023-05-15T12:59:54.481Z,99676.72
2023-05-15T13:02:26.983Z,99670.64
2023-05-15T13:04:59.470Z,99661.81
2023-05-15T13:07:32.411Z,99667.86
2023-05-15T13:10:12.088Z,99656.47
2023-05-15T13:12:47.611Z,99657.28
2023-05-15T13:15:30.570Z,99653.84
2023-05-15T13:18:08.265Z,99649.45
2023-05-15T13:20:43.273Z,99646.80
2023-05-15T13:23:20.151Z,99649.41
2023-05-15T13:25:52.713Z,99650.22
2023-05-15T13:28:25.210Z,99646.80
2023-05-15T13:30:57.748Z,99650.26
2023-05-15T13:33:30.967Z,99654.59
2023-05-15T13:36:03.462Z,99639.67
2023-05-15T13:38:36.010Z,99638.70
2023-05-15T13:41:24.401Z,99635.87
2023-05-15T13:43:56.978Z,99637.52
2023-05-15T13:46:29.428Z,99640.94
2023-05-15T13:49:02.301Z,99637.45
2023-05-15T13:51:34.683Z,99628.64
2023-05-15T13:54:07.180Z,99624.12
2023-05-15T13:56:41.779Z,99622.20
2023-05-15T13:59:14.232Z,99613.03
2023-05-15T14:01:46.745Z,99619.45
2023-05-15T14:04:19.180Z,99625.74
2023-05-15T14:06:52.611Z,99612.94
2023-05-15T14:09:32.777Z,99623.09
2023-05-15T14:12:22.448Z,99627.05
2023-05-15T14:14:55.959Z,99619.66
2023-05-15T14:17:29.193Z,99617.52
2023-05-15T14:20:02.784Z,99605.03
2023-05-15T14:22:35.570Z,99612.87
2023-05-15T14:25:10.127Z,99602.37
2023-05-15T14:27:47.952Z,99597.23
2023-05-15T14:30:20.765Z,99591.19
2023-05-15T14:32:53.900Z,99597.31
2023-05-15T14:35:29.125Z,99600.86
2023-05-15T14:38:03.229Z,99607.02
2023-05-15T14:40:36.027Z,99612.39
2023-05-15T14:43:12.124Z,99618.63
2023-05-15T14:45:44.845Z,99606.34
2023-05-15T14:48:17.319Z,99595.73
2023-05-15T14:50:50.021Z,99600.06
2023-05-15T14:53:22.668Z,99596.45
2023-05-15T14:55:55.881Z,99590.28
2023-05-15T14:58:29.507Z,99605.91
2023-05-15T15:01:02.334Z,99600.66
2023-05-15T15:03:37.247Z,99611.95
2023-05-15T15:06:16.697Z,99614.50
2023-05-15T15:08:58.752Z,99613.39
2023-05-15T15:11:31.440Z,99618.44
2023-05-15T15:14:04.691Z,99623.70
2023-05-15T15:16:37.547Z,99621.86
2023-05-15T15:19:20.166Z,99614.41
2023-05-15T15:21:54.727Z,99614.80
2023-05-15T15:24:29.959Z,99609.00
2023-05-15T15:27:07.688Z,99610.21
2023-05-15T15:29:41.145Z,99600.06
2023-05-15T15:32:13.848Z,99599.72
2023-05-15T15:34:46.841Z,99592.19
2023-05-15T15:37:19.494Z,99587.91
2023-05-15T15:39:52.460Z,99581.67
2023-05-15T15:42:24.992Z,99579.66
2023-05-15T15:44:57.903Z,99586.57
2023-05-15T15:47:32.355Z,99575.09
2023-05-15T15:50:05.305Z,99569.22
2023-05-15T15:52:39.043Z,99566.45
2023-05-15T15:55:13.094Z,99572.69
2023-05-15T15:57:48.985Z,99565.94
2023-05-15T16:00:22.063Z,99568.80
2023-05-15T16:02:54.769Z,99573.57
2023-05-15T16:05:27.602Z,99562.48
2023-05-15T16:08:00.704Z,99564.41
2023-05-15T16:10:33.530Z,99566.34
2023-05-15T16:13:06.245Z,99561.21
2023-05-15T16:15:41.830Z,99556.80
2023-05-15T16:18:14.435Z,99561.21
2023-05-15T16:20:48.686Z,99566.17
2023-05-15T16:23:21.476Z,99563.41
2023-05-15T16:25:54.511Z,99564.33
2023-05-15T16:28:30.116Z,99566.25
2023-05-15T16:31:03.415Z,99565.63
2023-05-15T16:33:36.165Z,99557.93
2023-05-15T16:36:10.618Z,99555.52
2023-05-15T16:38:45.722Z,99553.10
2023-05-15T16:41:18.256Z,99556.81
2023-05-15T16:43:51.263Z,99562.28
2023-05-15T16:46:24.591Z,99567.72
2023-05-15T16:48:59.688Z,99568.01
2023-05-15T16:51:32.736Z,99567.30
2023-05-15T16:54:05.263Z,99565.59
2023-05-15T16:56:37.690Z,99569.13
2023-05-15T16:59:10.894Z,99573.68
2023-05-15T17:01:43.455Z,99578.14
2023-05-15T17:04:15.919Z,99566.00
2023-05-15T17:06:48.257Z,99575.80
2023-05-15T17:09:21.566Z,99577.68
2023-05-15T17:11:54.023Z,99567.34
2023-05-15T17:14:34.833Z,99558.84
2023-05-15T17:17:07.601Z,99562.58
2023-05-15T17:19:41.644Z,99575.91
2023-05-15T17:22:13.950Z,99572.62
2023-05-15T17:24:51.269Z,99584.19
2023-05-15T17:27:25.492Z,99572.94
2023-05-15T17:29:58.844Z,99574.01
2023-05-15T17:32:31.578Z,99572.34
2023-05-15T17:35:04.466Z,99574.20
2023-05-15T17:37:37.997Z,99578.78
2023-05-15T17:40:13.199Z,99570.19
2023-05-15T17:42:44.405Z,99575.52
2023-05-15T17:45:16.972Z,99579.24
2023-05-15T17:47:49.827Z,99581.00
2023-05-15T17:50:22.569Z,99592.41
2023-05-15T17:52:54.962Z,99602.06
2023-05-15T17:55:27.543Z,99607.35
2023-05-15T19:04:06.686Z,99662.67
2023-05-15T19:06:35.862Z,99657.72
2023-05-15T19:09:09.827Z,99654.49
2023-05-15T19:11:42.542Z,99652.16
2023-05-15T19:14:14.928Z,99652.31
2023-05-15T19:16:44.591Z,99656.84
2023-05-15T19:19:14.411Z,99652.66
2023-05-15T19:21:43.915Z,99655.38
2023-05-15T19:24:13.421Z,99656.34
2023-05-15T19:26:45.779Z,99652.98
2023-05-15T19:29:17.295Z,99652.23
2023-05-15T19:31:51.708Z,99658.39
2023-05-15T19:34:20.991Z,99655.00
2023-05-15T19:36:52.796Z,99650.69
2023-05-15T19:39:22.345Z,99660.34
2023-05-15T19:41:51.594Z,99660.41
2023-05-15T19:44:31.657Z,99650.84
2023-05-15T19:47:03.191Z,99652.65
2023-05-15T19:49:35.866Z,99643.96
2023-05-15T19:52:06.953Z,99648.38
2023-05-15T19:54:38.718Z,99649.28
2023-05-15T19:57:08.459Z,99645.91
2023-05-15T19:59:40.293Z,99642.48
2023-05-15T20:02:12.273Z,99648.63
2023-05-15T20:04:42.278Z,99639.96
2023-05-15T20:07:12.337Z,99647.02
2023-05-15T20:09:42.092Z,99647.02
2023-05-15T20:12:12.527Z,99653.16
2023-05-15T20:14:47.911Z,99653.19
2023-05-15T20:17:17.448Z,99654.95
2023-05-15T20:19:52.954Z,99650.63
2023-05-15T20:22:28.185Z,99646.30
2023-05-15T20:24:57.473Z,99651.53
2023-05-15T20:27:28.281Z,99650.69
2023-05-15T20:29:58.831Z,99652.45
2023-05-15T20:32:31.121Z,99656.81
2023-05-15T20:35:01.242Z,99651.59
2023-05-15T20:37:30.566Z,99653.30
2023-05-15T20:40:00.652Z,99653.27
2023-05-15T20:42:32.594Z,99654.15
2023-05-15T20:45:14.138Z,99654.15
2023-05-15T20:47:45.632Z,99656.79
2023-05-15T20:50:16.101Z,99648.06
2023-05-15T20:52:45.731Z,99655.89
2023-05-15T20:55:15.919Z,99653.30
2023-05-15T20:57:46.253Z,99649.84
2023-05-15T21:00:20.485Z,99642.02
2023-05-15T21:02:50.840Z,99643.80
2023-05-15T21:05:20.321Z,99642.09
2023-05-15T21:07:49.323Z,99642.96
2023-05-15T21:10:20.813Z,99632.59
2023-05-15T21:13:00.559Z,99636.10
2023-05-15T21:15:32.613Z,99635.23
2023-05-15T21:18:04.453Z,99633.55
2023-05-15T21:20:35.138Z,99636.16
2023-05-15T21:23:07.005Z,99638.78
2023-05-15T21:25:36.007Z,99646.62
2023-05-15T21:28:07.144Z,99645.75
2023-05-15T21:30:36.071Z,99646.56
2023-05-15T21:33:08.620Z,99650.02
2023-05-15T21:35:39.143Z,99635.23
2023-05-15T21:38:11.352Z,99643.95
2023-05-15T21:40:40.511Z,99646.56
2023-05-15T21:43:10.259Z,99655.30
2023-05-15T21:45:41.333Z,99649.27
2023-05-15T21:48:10.737Z,99646.65
2023-05-15T21:50:40.041Z,99647.61
2023-05-15T21:53:09.294Z,99645.08
2023-05-15T21:55:39.390Z,99645.98
2023-05-15T21:58:11.271Z,99644.38
2023-05-15T22:00:40.659Z,99651.41
2023-05-15T22:03:12.948Z,99650.65
2023-05-15T22:05:43.186Z,99652.48
2023-05-15T22:08:13.491Z,99659.53
2023-05-15T22:10:42.552Z,99658.77
2023-05-15T22:13:16.176Z,99671.87
2023-05-15T22:15:50.709Z,99664.11
2023-05-15T22:18:22.774Z,99670.29
2023-05-15T22:20:54.670Z,99664.22
2023-05-15T22:23:24.857Z,99664.22
2023-05-15T22:25:53.883Z,99672.06
2023-05-15T22:28:27.808Z,99671.19
2023-05-15T22:31:05.573Z,99673.86
2023-05-15T22:33:39.040Z,99682.66
2023-05-15T22:36:10.405Z,99686.16
2023-05-15T22:38:41.856Z,99682.73
2023-05-15T22:41:13.519Z,99692.36
2023-05-15T22:43:50.406Z,99689.80
2023-05-15T22:46:21.909Z,99686.43
2023-05-15T22:48:52.483Z,99685.61
2023-05-15T22:51:21.827Z,99681.28
2023-05-15T22:53:50.831Z,99685.69
2023-05-15T22:56:19.841Z,99686.64
2023-05-15T22:58:49.210Z,99684.95
2023-05-15T23:01:18.429Z,99684.16
2023-05-15T23:03:47.643Z,99685.08
2023-05-15T23:06:20.458Z,99676.47
2023-05-15T23:08:50.753Z,99681.75
2023-05-15T23:11:20.918Z,99685.31
2023-05-15T23:13:50.204Z,99688.89
2023-05-15T23:16:19.354Z,99685.46
2023-05-15T23:18:55.718Z,99684.64
2023-05-15T23:21:25.203Z,99673.37
2023-05-15T23:23:54.495Z,99674.38
2023-05-15T23:26:23.555Z,99677.06
2023-05-15T23:28:52.565Z,99681.52
2023-05-15T23:31:21.536Z,99677.23
2023-05-15T23:33:53.832Z,99672.03
2023-05-15T23:36:25.146Z,99678.20
2023-05-15T23:38:57.317Z,99674.77
2023-05-15T23:41:26.889Z,99670.50
2023-05-15T23:43:55.712Z,99674.89
2023-05-15T23:46:25.153Z,99667.94
2023-05-15T23:48:55.811Z,99678.40
2023-05-15T23:51:24.974Z,99674.95
2023-05-15T23:53:54.091Z,99679.30
2023-05-15T23:56:23.350Z,99674.95
2023-05-15T23:58:52.585Z,99679.30
